Time;durP1;ratioP1;P1;durP2;ratioP2;P2;SDS_P1;SDS_P2;PMS_P1;PMS_P2;Temp;Humidity;BMP_temperature;BMP_pressure;BME280_temperature;BME280_humidity;BME280_pressure;Samples;Min_cycle;Max_cycle;Signal;HPM_P1;HPM_P2
2022/06/20 00:02:23;;;;;;;;;;;25.30;49.10;;;;;;5054528;28;19911;-72
2022/06/20 00:04:49;;;;;;;;;;;25.30;49.00;;;;;;5054546;28;19959;-72
2022/06/20 00:07:15;;;;;;;;;;;25.30;49.50;;;;;;5054461;28;19909;-72
2022/06/20 00:09:40;;;;;;;;;;;25.30;49.30;;;;;;5054088;28;20424;-72
2022/06/20 00:12:06;;;;;;;;;;;25.20;49.80;;;;;;5054352;28;19908;-72
2022/06/20 00:14:32;;;;;;;;;;;25.20;49.30;;;;;;5054366;28;19970;-72
2022/06/20 00:16:57;;;;;;;;;;;25.10;49.40;;;;;;5054552;28;19927;-72
2022/06/20 00:19:23;;;;;;;;;;;25.10;49.40;;;;;;5054392;28;19904;-71
2022/06/20 00:21:48;;;;;;;;;;;25.10;49.60;;;;;;5053555;28;19966;-72
2022/06/20 00:24:14;;;;;;;;;;;25.10;49.40;;;;;;5054240;28;20053;-72
2022/06/20 00:26:40;;;;;;;;;;;25.10;49.50;;;;;;5054344;28;19905;-72
2022/06/20 00:29:06;;;;;;;;;;;25.10;49.90;;;;;;5054626;28;19909;-72
2022/06/20 00:31:32;;;;;;;;;;;25.10;49.60;;;;;;5054146;28;20274;-72
2022/06/20 00:33:58;;;;;;;;;;;25.10;49.70;;;;;;5053999;28;19915;-72
2022/06/20 00:36:23;;;;;;;;;;;25.10;49.80;;;;;;5053863;28;19908;-73
2022/06/20 00:38:51;;;;;;;;;;;25.10;49.80;;;;;;5054068;28;19905;-72
2022/06/20 00:41:19;;;;;;;;;;;25.10;49.80;;;;;;5053865;28;20319;-71
2022/06/20 00:43:47;;;;;;;;;;;25.10;49.70;;;;;;5053923;28;19908;-71
2022/06/20 00:46:17;;;;;;;;;;;25.10;49.80;;;;;;5054291;28;19954;-72
2022/06/20 00:48:55;;;;;;;;;;;25.10;49.70;;;;;;5054224;28;20346;-72
2022/06/20 00:51:33;;;;;;;;;;;25.10;49.70;;;;;;5053963;28;19995;-72
2022/06/20 00:54:06;;;;;;;;;;;25.10;49.80;;;;;;5053870;28;20335;-72
2022/06/20 00:56:50;;;;;;;;;;;25.10;49.80;;;;;;5054127;28;19935;-72
2022/06/20 00:59:18;;;;;;;;;;;25.10;50.20;;;;;;5054008;28;20416;-72
2022/06/20 01:01:43;;;;;;;;;;;25.00;50.00;;;;;;5053072;28;19958;-72
2022/06/20 01:04:27;;;;;;;;;;;25.00;49.90;;;;;;5053904;28;19908;-72
2022/06/20 01:06:54;;;;;;;;;;;25.00;50.00;;;;;;5054046;28;19928;-72
2022/06/20 01:09:22;;;;;;;;;;;24.90;50.30;;;;;;5054055;28;19915;-72
2022/06/20 01:11:49;;;;;;;;;;;24.80;50.10;;;;;;5053771;28;20355;-72
2022/06/20 01:14:33;;;;;;;;;;;24.80;50.20;;;;;;5053679;28;19952;-71
2022/06/20 01:16:59;;;;;;;;;;;24.80;50.20;;;;;;5054353;28;19999;-71
2022/06/20 01:19:44;;;;;;;;;;;24.70;50.30;;;;;;5053674;28;20447;-72
2022/06/20 01:22:20;;;;;;;;;;;24.70;50.30;;;;;;5053427;28;20398;-71
2022/06/20 01:24:50;;;;;;;;;;;24.70;50.50;;;;;;5053568;28;19904;-72
2022/06/20 01:27:36;;;;;;;;;;;24.70;50.50;;;;;;5053316;28;20248;-73
2022/06/20 01:30:02;;;;;;;;;;;24.60;50.50;;;;;;5053390;28;20351;-71
2022/06/20 01:32:29;;;;;;;;;;;24.60;50.80;;;;;;5054762;28;19909;-72
2022/06/20 01:34:54;;;;;;;;;;;24.60;50.70;;;;;;5057248;28;19908;-72
2022/06/20 01:37:23;;;;;;;;;;;24.50;50.60;;;;;;5057024;28;19915;-73
2022/06/20 01:39:50;;;;;;;;;;;24.50;50.90;;;;;;5056065;28;20103;-74
2022/06/20 01:42:21;;;;;;;;;;;24.40;50.50;;;;;;5057349;28;19966;-72
2022/06/20 01:44:54;;;;;;;;;;;24.40;51.20;;;;;;5057624;28;20334;-72
2022/06/20 01:47:20;;;;;;;;;;;24.40;50.80;;;;;;5057042;28;19960;-72
2022/06/20 01:49:47;;;;;;;;;;;24.50;50.60;;;;;;5057020;28;19911;-72
2022/06/20 01:52:15;;;;;;;;;;;24.40;50.40;;;;;;5057628;28;20301;-72
2022/06/20 01:54:46;;;;;;;;;;;24.40;50.60;;;;;;5056934;28;19908;-73
2022/06/20 01:57:12;;;;;;;;;;;24.40;50.50;;;;;;5057105;28;19905;-72
2022/06/20 01:59:46;;;;;;;;;;;24.40;50.60;;;;;;5056897;28;20278;-71
2022/06/20 02:02:13;;;;;;;;;;;24.40;50.50;;;;;;5056595;28;19974;-70
2022/06/20 02:04:39;;;;;;;;;;;24.40;50.60;;;;;;5056900;28;19905;-70
2022/06/20 02:07:06;;;;;;;;;;;24.40;50.50;;;;;;5056724;28;20347;-71
2022/06/20 02:09:32;;;;;;;;;;;24.50;50.50;;;;;;5056662;28;19912;-72
2022/06/20 02:11:58;;;;;;;;;;;24.40;50.50;;;;;;5056880;28;19904;-70
2022/06/20 02:14:28;;;;;;;;;;;24.40;50.40;;;;;;5056376;28;20325;-72
2022/06/20 02:17:02;;;;;;;;;;;24.50;50.70;;;;;;5056561;28;19904;-72
2022/06/20 02:19:31;;;;;;;;;;;24.50;50.70;;;;;;5056402;28;20402;-72
2022/06/20 02:22:01;;;;;;;;;;;24.50;50.50;;;;;;5056653;28;19959;-72
2022/06/20 02:24:28;;;;;;;;;;;24.50;50.40;;;;;;5056368;28;19904;-71
2022/06/20 02:26:56;;;;;;;;;;;24.50;50.40;;;;;;5056330;28;20243;-72
2022/06/20 02:29:23;;;;;;;;;;;24.50;50.50;;;;;;5056370;28;19916;-72
2022/06/20 02:32:09;;;;;;;;;;;24.50;50.30;;;;;;5056297;28;19959;-71
2022/06/20 02:34:34;;;;;;;;;;;24.50;50.40;;;;;;5056353;28;19920;-72
2022/06/20 02:37:04;;;;;;;;;;;24.60;50.50;;;;;;5056187;28;19909;-72
2022/06/20 02:39:31;;;;;;;;;;;24.60;50.40;;;;;;5056229;28;19909;-71
2022/06/20 02:42:00;;;;;;;;;;;24.60;50.50;;;;;;5055857;28;19966;-71
2022/06/20 02:44:26;;;;;;;;;;;24.60;50.50;;;;;;5055491;28;19909;-72
2022/06/20 02:46:52;;;;;;;;;;;24.60;50.40;;;;;;5055840;28;19926;-71
2022/06/20 02:49:19;;;;;;;;;;;24.70;50.30;;;;;;5056029;28;19904;-71
2022/06/20 02:51:50;;;;;;;;;;;24.70;50.50;;;;;;5056034;28;19905;-71
2022/06/20 02:54:17;;;;;;;;;;;24.70;50.10;;;;;;5055569;28;19940;-72
2022/06/20 02:56:54;;;;;;;;;;;24.70;50.60;;;;;;5055935;28;19908;-71
2022/06/20 02:59:26;;;;;;;;;;;24.70;50.30;;;;;;5056253;28;20003;-71
2022/06/20 03:01:54;;;;;;;;;;;24.70;50.30;;;;;;5055549;28;19967;-71
2022/06/20 03:04:20;;;;;;;;;;;24.70;50.20;;;;;;5055498;28;19905;-72
2022/06/20 03:06:49;;;;;;;;;;;24.70;50.10;;;;;;5055413;28;19942;-72
2022/06/20 03:09:16;;;;;;;;;;;24.70;50.00;;;;;;5055669;28;19909;-72
2022/06/20 03:11:42;;;;;;;;;;;24.70;50.00;;;;;;5055791;28;19912;-71
2022/06/20 03:14:11;;;;;;;;;;;24.80;50.10;;;;;;5055206;28;19909;-72
2022/06/20 03:16:39;;;;;;;;;;;24.80;50.00;;;;;;5055388;28;20341;-71
2022/06/20 03:19:06;;;;;;;;;;;24.80;50.00;;;;;;5055231;28;19949;-71
2022/06/20 03:21:35;;;;;;;;;;;24.80;50.10;;;;;;5055242;28;19908;-71
2022/06/20 03:24:01;;;;;;;;;;;24.80;50.10;;;;;;5055650;28;19995;-70
2022/06/20 03:26:27;;;;;;;;;;;24.80;50.00;;;;;;5055263;28;19949;-71
2022/06/20 03:28:53;;;;;;;;;;;24.80;50.00;;;;;;5054822;28;20036;-71
2022/06/20 03:31:19;;;;;;;;;;;24.80;50.00;;;;;;5055151;28;20244;-71
2022/06/20 03:33:45;;;;;;;;;;;24.80;50.00;;;;;;5054773;28;20018;-71
2022/06/20 03:36:13;;;;;;;;;;;24.80;50.00;;;;;;5055388;28;19919;-71
2022/06/20 03:38:39;;;;;;;;;;;24.90;50.00;;;;;;5054956;28;20007;-69
2022/06/20 03:41:06;;;;;;;;;;;24.90;50.10;;;;;;5055076;28;20382;-72
2022/06/20 03:43:32;;;;;;;;;;;24.90;50.00;;;;;;5054953;28;19911;-71
2022/06/20 03:46:01;;;;;;;;;;;24.90;49.90;;;;;;5054815;28;19905;-71
2022/06/20 03:48:29;;;;;;;;;;;24.90;50.00;;;;;;5054595;28;20347;-71
2022/06/20 03:50:58;;;;;;;;;;;24.90;49.90;;;;;;5054894;28;20231;-72
2022/06/20 03:53:29;;;;;;;;;;;25.00;50.00;;;;;;5054789;28;20339;-71
2022/06/20 03:56:05;;;;;;;;;;;25.00;50.20;;;;;;5053573;28;20324;-71
2022/06/20 03:58:35;;;;;;;;;;;25.00;50.00;;;;;;5054449;28;19934;-71
2022/06/20 04:01:15;;;;;;;;;;;25.00;50.00;;;;;;5054644;28;19904;-71
2022/06/20 04:03:56;;;;;;;;;;;25.00;50.00;;;;;;5054759;28;19908;-72
2022/06/20 04:06:27;;;;;;;;;;;25.10;49.90;;;;;;5053496;28;19966;-71
2022/06/20 04:11:45;;;;;;;;;;;25.10;49.90;;;;;;5054215;28;19974;-69
2022/06/20 04:14:20;;;;;;;;;;;25.10;49.90;;;;;;5054327;28;19908;-71
2022/06/20 04:16:48;;;;;;;;;;;25.10;49.80;;;;;;5054412;28;20279;-71
2022/06/20 04:19:18;;;;;;;;;;;25.10;49.70;;;;;;5054117;28;19904;-71
2022/06/20 04:21:47;;;;;;;;;;;25.10;49.80;;;;;;5054216;28;19952;-71
2022/06/20 04:24:13;;;;;;;;;;;25.00;49.60;;;;;;5054635;28;19912;-71
2022/06/20 04:26:47;;;;;;;;;;;25.10;49.70;;;;;;5054422;28;20266;-71
2022/06/20 04:29:12;;;;;;;;;;;25.10;49.70;;;;;;5054061;28;19962;-71
2022/06/20 04:31:47;;;;;;;;;;;25.10;49.60;;;;;;5054121;28;20376;-71
2022/06/20 04:34:25;;;;;;;;;;;25.10;49.60;;;;;;5053701;28;19909;-71
2022/06/20 04:36:57;;;;;;;;;;;25.20;49.70;;;;;;5054072;28;19920;-71
2022/06/20 04:39:39;;;;;;;;;;;25.20;49.70;;;;;;5053843;28;19905;-72
2022/06/20 04:42:04;;;;;;;;;;;25.20;49.40;;;;;;5053969;28;19905;-71
2022/06/20 04:44:36;;;;;;;;;;;25.20;49.60;;;;;;5053797;28;19909;-70
2022/06/20 04:47:10;;;;;;;;;;;25.20;49.50;;;;;;5053649;28;19927;-71
2022/06/20 04:49:37;;;;;;;;;;;25.20;49.50;;;;;;5054158;28;19905;-71
2022/06/20 04:52:02;;;;;;;;;;;25.30;49.50;;;;;;5054270;28;19905;-70
2022/06/20 04:54:28;;;;;;;;;;;25.30;49.50;;;;;;5053586;28;19919;-71
2022/06/20 04:56:54;;;;;;;;;;;25.30;49.50;;;;;;5053649;28;19911;-72
2022/06/20 04:59:22;;;;;;;;;;;25.30;49.50;;;;;;5054044;28;20347;-72
2022/06/20 05:01:49;;;;;;;;;;;25.30;49.40;;;;;;5053462;28;19991;-72
2022/06/20 05:04:18;;;;;;;;;;;25.40;49.40;;;;;;5052373;28;19915;-74
2022/06/20 05:06:44;;;;;;;;;;;25.40;49.50;;;;;;5048158;28;19955;-70
2022/06/20 05:09:13;;;;;;;;;;;25.30;49.40;;;;;;5047846;28;19912;-72
2022/06/20 05:11:47;;;;;;;;;;;25.40;49.40;;;;;;5037706;28;20421;-75
2022/06/20 05:14:23;;;;;;;;;;;25.40;49.30;;;;;;5037662;28;19917;-72
2022/06/20 05:16:50;;;;;;;;;;;25.40;49.30;;;;;;5038131;28;19909;-69
2022/06/20 05:19:35;;;;;;;;;;;25.40;49.30;;;;;;5043910;28;20656;-71
2022/06/20 05:22:03;;;;;;;;;;;25.50;50.00;;;;;;5051589;28;19904;-70
2022/06/20 05:24:32;;;;;;;;;;;25.50;49.40;;;;;;5050269;28;19909;-71
2022/06/20 05:27:08;;;;;;;;;;;25.50;49.30;;;;;;5049385;28;19960;-71
2022/06/20 05:29:34;;;;;;;;;;;25.60;49.30;;;;;;5050199;28;19909;-71
2022/06/20 05:32:05;;;;;;;;;;;25.50;49.20;;;;;;5049038;28;19909;-72
2022/06/20 05:34:30;;;;;;;;;;;25.60;49.10;;;;;;5053782;28;19920;-73
2022/06/20 05:37:05;;;;;;;;;;;25.60;49.10;;;;;;5057242;28;19958;-71
2022/06/20 05:39:40;;;;;;;;;;;25.60;49.10;;;;;;5057122;28;20023;-71
2022/06/20 05:42:09;;;;;;;;;;;25.70;49.10;;;;;;5056098;28;19904;-71
2022/06/20 05:44:35;;;;;;;;;;;25.70;49.10;;;;;;5057245;28;19905;-73
2022/06/20 05:47:03;;;;;;;;;;;25.70;49.00;;;;;;5056944;28;19958;-71
2022/06/20 05:49:34;;;;;;;;;;;25.70;49.00;;;;;;5055525;28;19932;-71
2022/06/20 05:52:01;;;;;;;;;;;25.70;48.90;;;;;;5055484;28;20366;-70
2022/06/20 05:54:28;;;;;;;;;;;25.80;49.10;;;;;;5055684;28;20351;-71
2022/06/20 05:57:00;;;;;;;;;;;25.80;49.10;;;;;;5055817;28;19908;-71
2022/06/20 05:59:29;;;;;;;;;;;25.80;49.20;;;;;;5054518;28;20283;-71
2022/06/20 06:01:57;;;;;;;;;;;25.80;49.00;;;;;;5055653;28;19957;-71
2022/06/20 06:04:22;;;;;;;;;;;25.80;49.00;;;;;;5056273;28;20343;-71
2022/06/20 06:06:56;;;;;;;;;;;25.80;48.80;;;;;;5056736;28;19996;-71
2022/06/20 06:09:33;;;;;;;;;;;25.80;48.80;;;;;;5056763;28;19940;-71
2022/06/20 06:12:01;;;;;;;;;;;25.90;48.90;;;;;;5056474;28;19916;-70
2022/06/20 06:14:46;;;;;;;;;;;25.90;48.80;;;;;;5056212;28;20387;-71
2022/06/20 06:17:16;;;;;;;;;;;25.90;48.70;;;;;;5056970;28;19916;-71
2022/06/20 06:19:48;;;;;;;;;;;26.00;48.80;;;;;;5055648;28;19968;-71
2022/06/20 06:22:17;;;;;;;;;;;25.90;48.60;;;;;;5056361;28;19905;-70
2022/06/20 06:24:44;;;;;;;;;;;26.00;48.60;;;;;;5054721;28;20045;-71
2022/06/20 06:27:16;;;;;;;;;;;26.00;48.50;;;;;;5056149;28;20066;-71
2022/06/20 06:29:45;;;;;;;;;;;26.00;48.40;;;;;;5056657;28;19905;-71
2022/06/20 06:32:19;;;;;;;;;;;26.00;48.30;;;;;;5056396;28;19995;-72
2022/06/20 06:34:49;;;;;;;;;;;26.00;48.20;;;;;;5056504;28;19920;-71
2022/06/20 06:37:19;;;;;;;;;;;26.00;48.10;;;;;;5055096;28;19912;-71
2022/06/20 06:39:50;;;;;;;;;;;26.00;48.00;;;;;;5056435;28;20345;-71
2022/06/20 06:42:17;;;;;;;;;;;26.00;47.80;;;;;;5056045;28;20358;-71
2022/06/20 06:44:43;;;;;;;;;;;26.00;47.80;;;;;;5055744;28;19911;-69
2022/06/20 06:47:25;;;;;;;;;;;26.10;47.80;;;;;;5055670;28;20282;-71
2022/06/20 06:49:54;;;;;;;;;;;26.10;47.60;;;;;;5055548;28;19905;-71
2022/06/20 06:52:25;;;;;;;;;;;26.10;47.70;;;;;;5055791;28;19916;-70
2022/06/20 06:54:53;;;;;;;;;;;26.10;47.60;;;;;;5055813;28;19908;-71
2022/06/20 06:57:21;;;;;;;;;;;26.10;47.20;;;;;;5054729;28;19905;-70
2022/06/20 06:59:54;;;;;;;;;;;26.10;47.20;;;;;;5055597;28;19984;-71
2022/06/20 07:02:23;;;;;;;;;;;26.10;47.20;;;;;;5055363;28;20205;-71
2022/06/20 07:04:58;;;;;;;;;;;26.10;47.10;;;;;;5055421;28;20286;-71
2022/06/20 07:07:31;;;;;;;;;;;26.20;47.10;;;;;;5055583;28;20314;-71
2022/06/20 07:09:57;;;;;;;;;;;26.20;46.90;;;;;;5055415;28;20360;-71
2022/06/20 07:12:31;;;;;;;;;;;26.20;46.60;;;;;;5055393;28;19905;-71
2022/06/20 07:15:05;;;;;;;;;;;26.20;46.60;;;;;;5055371;28;19912;-72
2022/06/20 07:17:38;;;;;;;;;;;26.20;46.60;;;;;;5055235;28;19916;-70
2022/06/20 07:20:04;;;;;;;;;;;26.20;46.30;;;;;;5054012;28;19951;-70
2022/06/20 07:22:30;;;;;;;;;;;26.20;46.50;;;;;;5055264;28;19908;-71
2022/06/20 07:24:56;;;;;;;;;;;26.20;46.40;;;;;;5055211;28;19905;-71
2022/06/20 07:27:28;;;;;;;;;;;26.20;46.70;;;;;;5054725;28;19982;-70
2022/06/20 07:29:58;;;;;;;;;;;26.20;46.50;;;;;;5054956;28;20007;-71
2022/06/20 07:32:33;;;;;;;;;;;26.30;46.40;;;;;;5054839;28;19911;-71
2022/06/20 07:35:01;;;;;;;;;;;26.30;46.40;;;;;;5054974;28;19932;-71
2022/06/20 07:37:34;;;;;;;;;;;26.30;46.40;;;;;;5054607;28;19912;-68
2022/06/20 07:40:08;;;;;;;;;;;26.30;46.40;;;;;;5054824;28;20333;-71
2022/06/20 07:42:39;;;;;;;;;;;26.40;46.50;;;;;;5054938;28;19905;-73
2022/06/20 07:45:07;;;;;;;;;;;26.40;46.60;;;;;;5054519;28;19905;-71
2022/06/20 07:47:46;;;;;;;;;;;26.40;46.20;;;;;;5054711;28;19905;-71
2022/06/20 07:50:14;;;;;;;;;;;26.40;46.10;;;;;;5054413;28;19904;-71
2022/06/20 07:52:50;;;;;;;;;;;26.40;46.00;;;;;;5054379;28;20336;-72
2022/06/20 07:55:19;;;;;;;;;;;26.40;46.00;;;;;;5054251;28;19908;-71
2022/06/20 07:57:48;;;;;;;;;;;26.40;45.40;;;;;;5054852;28;19905;-72
2022/06/20 08:00:16;;;;;;;;;;;26.40;45.50;;;;;;5054332;28;19905;-70
2022/06/20 08:02:47;;;;;;;;;;;26.40;45.50;;;;;;5054263;28;20274;-71
2022/06/20 08:05:16;;;;;;;;;;;26.40;45.10;;;;;;5054098;28;19955;-72
2022/06/20 08:07:50;;;;;;;;;;;26.50;45.60;;;;;;5054255;28;19955;-69
2022/06/20 08:10:28;;;;;;;;;;;26.50;45.40;;;;;;5054330;28;19904;-71
2022/06/20 08:13:12;;;;;;;;;;;26.50;45.40;;;;;;5054386;28;20366;-70
2022/06/20 08:15:44;;;;;;;;;;;26.50;45.40;;;;;;5054098;28;19909;-71
2022/06/20 08:18:09;;;;;;;;;;;26.50;45.50;;;;;;5054147;28;19904;-72
2022/06/20 08:20:38;;;;;;;;;;;26.60;45.10;;;;;;5054193;28;19912;-69
2022/06/20 08:23:07;;;;;;;;;;;26.60;45.50;;;;;;5054236;28;19905;-71
2022/06/20 08:25:35;;;;;;;;;;;26.60;45.20;;;;;;5054060;28;19916;-71
2022/06/20 08:28:21;;;;;;;;;;;26.60;44.70;;;;;;5053962;28;19966;-71
2022/06/20 08:30:54;;;;;;;;;;;26.60;45.10;;;;;;5052608;28;20389;-71
2022/06/20 08:33:23;;;;;;;;;;;26.60;45.20;;;;;;5053764;28;19912;-71
2022/06/20 08:36:14;;;;;;;;;;;26.60;45.20;;;;;;5053922;28;19911;-70
2022/06/20 08:38:40;;;;;;;;;;;26.60;44.90;;;;;;5053318;28;19905;-71
2022/06/20 08:41:14;;;;;;;;;;;26.70;45.10;;;;;;5053278;28;20271;-70
2022/06/20 08:43:42;;;;;;;;;;;26.70;45.10;;;;;;5053282;28;19911;-70
2022/06/20 08:46:26;;;;;;;;;;;26.70;45.10;;;;;;5053551;28;19912;-70
2022/06/20 08:48:55;;;;;;;;;;;26.70;45.00;;;;;;5053612;28;19927;-70
2022/06/20 08:51:29;;;;;;;;;;;26.70;44.80;;;;;;5053541;28;20359;-70
2022/06/20 08:54:10;;;;;;;;;;;26.70;44.80;;;;;;5053704;28;19967;-71
2022/06/20 08:56:38;;;;;;;;;;;26.70;44.90;;;;;;5053787;28;19904;-71
2022/06/20 08:59:05;;;;;;;;;;;26.80;44.50;;;;;;5053190;28;20381;-70
2022/06/20 09:01:43;;;;;;;;;;;26.70;44.70;;;;;;5053497;28;19909;-72
2022/06/20 09:04:27;;;;;;;;;;;26.70;44.50;;;;;;5053478;28;19967;-72
2022/06/20 09:07:11;;;;;;;;;;;26.80;44.50;;;;;;5053607;28;19905;-72
2022/06/20 09:09:37;;;;;;;;;;;26.80;44.60;;;;;;5051996;28;20039;-72
2022/06/20 09:12:23;;;;;;;;;;;26.80;44.20;;;;;;5053639;28;19904;-73
2022/06/20 09:14:48;;;;;;;;;;;26.90;44.40;;;;;;5051963;28;19992;-72
2022/06/20 09:17:21;;;;;;;;;;;26.90;44.30;;;;;;5053341;28;19999;-73
2022/06/20 09:19:57;;;;;;;;;;;26.90;44.40;;;;;;5051950;28;19952;-72
2022/06/20 09:22:23;;;;;;;;;;;27.00;44.40;;;;;;5053552;28;19905;-72
2022/06/20 09:25:27;;;;;;;;;;;27.00;44.20;;;;;;5053476;28;19904;-72
2022/06/20 09:28:01;;;;;;;;;;;27.00;44.00;;;;;;5050886;28;19920;-72
2022/06/20 09:30:40;;;;;;;;;;;27.00;44.00;;;;;;5051138;28;19912;-72
2022/06/20 09:33:09;;;;;;;;;;;27.00;43.80;;;;;;5043784;28;19978;-73
2022/06/20 09:35:43;;;;;;;;;;;27.10;44.00;;;;;;5053186;28;19909;-72
2022/06/20 09:38:31;;;;;;;;;;;27.10;43.90;;;;;;5053223;28;19904;-72
2022/06/20 09:41:03;;;;;;;;;;;27.10;43.90;;;;;;5053559;28;19905;-72
2022/06/20 09:43:37;;;;;;;;;;;27.10;43.60;;;;;;5053186;28;19904;-71
2022/06/20 09:46:06;;;;;;;;;;;27.10;43.80;;;;;;5052791;28;19912;-72
2022/06/20 09:48:51;;;;;;;;;;;27.10;43.70;;;;;;5053100;28;19935;-72
2022/06/20 09:51:35;;;;;;;;;;;27.10;43.70;;;;;;5053438;28;20364;-72
2022/06/20 09:54:13;;;;;;;;;;;27.20;43.70;;;;;;5055338;28;19913;-72
2022/06/20 09:56:38;;;;;;;;;;;27.20;43.30;;;;;;5056609;28;19912;-72
2022/06/20 09:59:33;;;;;;;;;;;27.20;43.40;;;;;;5055602;28;19904;-72
2022/06/20 10:02:20;;;;;;;;;;;27.20;43.30;;;;;;5054480;28;19920;-72
2022/06/20 10:05:04;;;;;;;;;;;27.30;43.40;;;;;;5056783;28;19905;-72
2022/06/20 10:07:45;;;;;;;;;;;27.30;43.20;;;;;;5056258;28;19944;-72
2022/06/20 10:10:14;;;;;;;;;;;27.30;43.10;;;;;;5056603;28;20350;-72
2022/06/20 10:12:42;;;;;;;;;;;27.30;43.20;;;;;;5056462;28;19921;-72
2022/06/20 10:15:26;;;;;;;;;;;27.40;42.90;;;;;;5055145;28;19954;-72
2022/06/20 10:17:54;;;;;;;;;;;27.30;42.60;;;;;;5056423;28;19951;-72
2022/06/20 10:20:24;;;;;;;;;;;27.40;42.90;;;;;;5056177;28;19904;-72
2022/06/20 10:22:56;;;;;;;;;;;27.40;42.70;;;;;;5056270;28;19947;-72
2022/06/20 10:25:24;;;;;;;;;;;27.40;42.70;;;;;;5056639;28;19905;-72
2022/06/20 10:27:58;;;;;;;;;;;27.40;42.40;;;;;;5056507;28;20333;-72
2022/06/20 10:30:33;;;;;;;;;;;27.40;42.70;;;;;;5056064;28;19934;-72
2022/06/20 10:33:22;;;;;;;;;;;27.40;42.60;;;;;;5054925;28;20287;-72
2022/06/20 10:35:56;;;;;;;;;;;27.40;42.40;;;;;;5056338;28;19905;-72
2022/06/20 10:38:24;;;;;;;;;;;27.50;42.50;;;;;;5056347;28;20011;-72
2022/06/20 10:40:52;;;;;;;;;;;27.50;42.50;;;;;;5055924;28;20287;-72
2022/06/20 10:43:41;;;;;;;;;;;27.50;42.20;;;;;;5054430;28;19967;-72
2022/06/20 10:46:11;;;;;;;;;;;27.50;42.40;;;;;;5051682;28;19904;-72
2022/06/20 10:48:42;;;;;;;;;;;27.50;42.50;;;;;;5055870;28;19905;-72
2022/06/20 10:51:13;;;;;;;;;;;27.50;42.50;;;;;;5055779;28;19905;-72
2022/06/20 10:53:50;;;;;;;;;;;27.50;42.50;;;;;;5055673;28;19939;-72
2022/06/20 10:56:36;;;;;;;;;;;27.50;42.50;;;;;;5055841;28;19905;-72
2022/06/20 10:59:05;;;;;;;;;;;27.60;42.20;;;;;;5055588;28;20400;-72
2022/06/20 11:01:30;;;;;;;;;;;27.60;42.00;;;;;;5055542;28;20366;-72
2022/06/20 11:04:18;;;;;;;;;;;27.60;42.20;;;;;;5055229;28;19905;-71
2022/06/20 11:07:00;;;;;;;;;;;27.60;42.20;;;;;;5055306;28;19905;-71
2022/06/20 11:09:51;;;;;;;;;;;27.60;42.10;;;;;;5055421;28;20397;-71
2022/06/20 11:12:28;;;;;;;;;;;27.60;41.70;;;;;;5055605;28;20262;-72
2022/06/20 11:15:07;;;;;;;;;;;27.60;41.90;;;;;;5055242;28;19913;-71
2022/06/20 11:17:36;;;;;;;;;;;27.70;42.10;;;;;;5055514;28;19959;-71
2022/06/20 11:20:01;;;;;;;;;;;27.70;42.00;;;;;;5055171;28;19905;-71
2022/06/20 11:22:27;;;;;;;;;;;27.70;41.90;;;;;;5055349;28;20051;-72
2022/06/20 11:24:52;;;;;;;;;;;27.70;41.80;;;;;;5054924;28;19943;-71
2022/06/20 11:27:29;;;;;;;;;;;27.70;41.80;;;;;;5055006;28;20363;-71
2022/06/20 11:30:04;;;;;;;;;;;27.80;41.90;;;;;;5054135;28;19904;-71
2022/06/20 11:32:48;;;;;;;;;;;27.80;41.70;;;;;;5055052;28;20432;-71
2022/06/20 11:35:16;;;;;;;;;;;27.80;41.70;;;;;;5054822;28;19958;-71
2022/06/20 11:37:45;;;;;;;;;;;27.80;41.70;;;;;;5055300;28;19981;-71
2022/06/20 11:40:35;;;;;;;;;;;27.80;41.50;;;;;;5054940;28;19975;-71
2022/06/20 11:43:06;;;;;;;;;;;27.80;41.50;;;;;;5054798;28;19915;-72
2022/06/20 11:45:38;;;;;;;;;;;27.90;41.50;;;;;;5054744;28;20271;-71
2022/06/20 11:48:19;;;;;;;;;;;27.90;41.50;;;;;;5054787;28;19905;-72
2022/06/20 11:50:47;;;;;;;;;;;27.80;41.30;;;;;;5054417;28;19904;-72
2022/06/20 11:53:31;;;;;;;;;;;27.90;41.50;;;;;;5054792;28;19913;-72
2022/06/20 11:56:04;;;;;;;;;;;27.90;41.40;;;;;;5053434;28;20366;-72
2022/06/20 11:58:35;;;;;;;;;;;28.00;41.20;;;;;;5054596;28;19911;-71
2022/06/20 12:01:20;;;;;;;;;;;28.00;41.60;;;;;;5054701;28;19912;-71
2022/06/20 12:03:52;;;;;;;;;;;28.00;41.40;;;;;;5054318;28;19904;-72
2022/06/20 12:06:37;;;;;;;;;;;28.00;41.40;;;;;;5054208;28;19904;-72
2022/06/20 12:09:13;;;;;;;;;;;28.10;41.50;;;;;;5054439;28;20379;-70
2022/06/20 12:11:42;;;;;;;;;;;28.10;41.50;;;;;;5054422;28;19904;-71
2022/06/20 12:14:16;;;;;;;;;;;28.10;41.40;;;;;;5054396;28;19913;-71
2022/06/20 12:17:00;;;;;;;;;;;28.20;41.50;;;;;;5053252;28;19904;-72
2022/06/20 12:25:27;;;;;;;;;;;28.30;41.50;;;;;;5054354;28;20348;-70
2022/06/20 12:27:52;;;;;;;;;;;28.30;41.30;;;;;;5053774;28;20291;-70
2022/06/20 12:30:19;;;;;;;;;;;28.40;41.30;;;;;;5054077;28;19905;-70
2022/06/20 12:32:46;;;;;;;;;;;28.40;41.20;;;;;;5054197;28;19917;-71
2022/06/20 12:35:19;;;;;;;;;;;28.50;41.20;;;;;;5053828;28;19987;-71
2022/06/20 12:37:53;;;;;;;;;;;28.50;41.20;;;;;;5054357;28;20251;-71
2022/06/20 12:40:22;;;;;;;;;;;28.60;41.20;;;;;;5053854;28;19905;-70
2022/06/20 12:42:50;;;;;;;;;;;28.60;40.80;;;;;;5054046;28;19911;-71
2022/06/20 12:45:19;;;;;;;;;;;28.60;41.10;;;;;;5053926;28;19986;-70
2022/06/20 12:48:11;;;;;;;;;;;28.80;41.30;;;;;;5053822;28;19911;-70
2022/06/20 12:50:48;;;;;;;;;;;28.80;41.10;;;;;;5053085;28;20290;-70
2022/06/20 12:53:17;;;;;;;;;;;28.90;41.00;;;;;;5053588;28;19959;-70
2022/06/20 12:55:57;;;;;;;;;;;29.00;41.20;;;;;;5053576;28;20366;-71
2022/06/20 12:58:26;;;;;;;;;;;29.10;41.00;;;;;;5053365;28;20374;-70
2022/06/20 13:00:55;;;;;;;;;;;29.20;40.80;;;;;;5054136;28;19915;-70
2022/06/20 13:03:39;;;;;;;;;;;29.30;40.70;;;;;;5053450;28;20373;-72
2022/06/20 13:06:23;;;;;;;;;;;29.30;40.60;;;;;;5053825;28;20309;-70
2022/06/20 13:09:21;;;;;;;;;;;29.40;40.40;;;;;;5053803;28;19912;-71
2022/06/20 13:12:05;;;;;;;;;;;29.50;40.50;;;;;;5052349;28;19957;-70
2022/06/20 13:14:46;;;;;;;;;;;29.60;40.40;;;;;;5052451;28;19916;-70
2022/06/20 13:17:29;;;;;;;;;;;29.80;40.30;;;;;;5053765;28;19904;-71
2022/06/20 13:20:01;;;;;;;;;;;29.90;40.00;;;;;;5053925;28;19904;-70
2022/06/20 13:22:32;;;;;;;;;;;30.10;40.00;;;;;;5053426;28;19912;-70
2022/06/20 13:25:03;;;;;;;;;;;30.10;40.00;;;;;;5053577;28;19905;-70
2022/06/20 13:27:46;;;;;;;;;;;30.30;39.60;;;;;;5053542;28;19921;-71
2022/06/20 13:30:12;;;;;;;;;;;30.40;39.80;;;;;;5057422;28;19905;-70
2022/06/20 13:32:44;;;;;;;;;;;30.60;39.70;;;;;;5057727;28;19959;-71
2022/06/20 13:35:28;;;;;;;;;;;30.90;39.40;;;;;;5057420;28;20339;-71
2022/06/20 13:38:00;;;;;;;;;;;31.30;39.20;;;;;;5057332;28;19908;-70
2022/06/20 13:40:25;;;;;;;;;;;31.90;38.50;;;;;;5057155;28;19940;-70
2022/06/20 13:43:00;;;;;;;;;;;32.60;38.00;;;;;;5057032;28;19912;-71
2022/06/20 13:45:28;;;;;;;;;;;33.30;37.60;;;;;;5056181;28;19905;-71
2022/06/20 13:47:55;;;;;;;;;;;34.00;38.40;;;;;;5057194;28;19951;-70
2022/06/20 13:50:24;;;;;;;;;;;34.60;37.60;;;;;;5055576;28;19909;-71
2022/06/20 13:52:54;;;;;;;;;;;35.30;37.70;;;;;;5057053;28;19953;-71
2022/06/20 13:55:25;;;;;;;;;;;35.90;36.90;;;;;;5056827;28;20270;-72
2022/06/20 13:58:03;;;;;;;;;;;36.40;35.90;;;;;;5057121;28;19962;-72
2022/06/20 14:00:31;;;;;;;;;;;37.10;36.30;;;;;;5056624;28;19911;-73
2022/06/20 14:02:57;;;;;;;;;;;37.70;34.70;;;;;;5056848;28;19905;-70
2022/06/20 14:05:25;;;;;;;;;;;38.20;34.40;;;;;;5056955;28;19912;-72
2022/06/20 14:07:53;;;;;;;;;;;38.60;34.70;;;;;;5056831;28;19915;-72
2022/06/20 14:10:30;;;;;;;;;;;39.10;34.80;;;;;;5056918;28;19905;-72
2022/06/20 14:12:58;;;;;;;;;;;39.60;36.10;;;;;;5055491;28;19913;-72
2022/06/20 14:15:32;;;;;;;;;;;40.00;33.80;;;;;;5056494;28;19905;-72
2022/06/20 14:17:59;;;;;;;;;;;40.40;33.80;;;;;;5056658;28;19905;-71
2022/06/20 14:20:29;;;;;;;;;;;40.70;34.10;;;;;;5056272;28;19912;-72
2022/06/20 14:22:56;;;;;;;;;;;41.00;33.80;;;;;;5056144;28;19904;-71
2022/06/20 14:25:38;;;;;;;;;;;41.40;32.70;;;;;;5054874;28;19909;-71
2022/06/20 14:28:05;;;;;;;;;;;41.60;32.80;;;;;;5056233;28;19920;-73
2022/06/20 14:30:33;;;;;;;;;;;41.90;32.60;;;;;;5055873;28;19905;-71
2022/06/20 14:33:02;;;;;;;;;;;42.20;33.90;;;;;;5055067;28;20264;-78
2022/06/20 14:35:31;;;;;;;;;;;42.30;32.90;;;;;;5056225;28;19947;-70
2022/06/20 14:38:02;;;;;;;;;;;42.50;33.50;;;;;;5055877;28;20376;-72
2022/06/20 14:40:41;;;;;;;;;;;42.70;33.20;;;;;;5054966;28;19912;-71
2022/06/20 14:43:10;;;;;;;;;;;42.70;31.70;;;;;;5055731;28;19912;-71
2022/06/20 14:45:39;;;;;;;;;;;42.70;33.70;;;;;;5055927;28;19959;-71
2022/06/20 14:48:14;;;;;;;;;;;42.70;32.30;;;;;;5055944;28;19904;-71
2022/06/20 14:50:48;;;;;;;;;;;42.40;32.40;;;;;;5055617;28;19912;-70
2022/06/20 14:53:14;;;;;;;;;;;42.20;31.60;;;;;;5055423;28;19949;-70